sensor_id;sensor_type;location;lat;lon;timestamp;temperature;humidity
42261;DHT22;27926;48.062;7.474;2023-07-31T06:13:31;15.70;99.90
42261;DHT22;27926;48.062;7.474;2023-07-31T06:18:32;16.80;99.90
42261;DHT22;27926;48.062;7.474;2023-07-31T06:31:14;17.60;99.90
42261;DHT22;27926;48.062;7.474;2023-07-31T06:33:44;17.60;99.90
42261;DHT22;27926;48.062;7.474;2023-07-31T06:41:23;17.80;99.90
42261;DHT22;27926;48.062;7.474;2023-07-31T06:43:47;17.90;99.90
42261;DHT22;27926;48.062;7.474;2023-07-31T06:46:12;18.00;99.90
42261;DHT22;27926;48.062;7.474;2023-07-31T06:48:36;18.10;99.90
42261;DHT22;27926;48.062;7.474;2023-07-31T06:51:02;18.30;99.90
42261;DHT22;27926;48.062;7.474;2023-07-31T06:53:26;18.40;99.90
42261;DHT22;27926;48.062;7.474;2023-07-31T06:55:51;18.50;99.90
42261;DHT22;27926;48.062;7.474;2023-07-31T06:58:16;18.50;99.90
42261;DHT22;27926;48.062;7.474;2023-07-31T07:00:40;18.60;99.90
42261;DHT22;27926;48.062;7.474;2023-07-31T07:03:05;18.70;99.90
42261;DHT22;27926;48.062;7.474;2023-07-31T07:05:29;18.90;99.90
42261;DHT22;27926;48.062;7.474;2023-07-31T07:07:54;19.50;99.90
42261;DHT22;27926;48.062;7.474;2023-07-31T07:10:19;20.10;99.90
42261;DHT22;27926;48.062;7.474;2023-07-31T07:12:43;20.60;99.90
42261;DHT22;27926;48.062;7.474;2023-07-31T07:15:08;21.00;99.90
42261;DHT22;27926;48.062;7.474;2023-07-31T07:17:34;21.30;99.90
42261;DHT22;27926;48.062;7.474;2023-07-31T07:20:00;21.40;99.90
42261;DHT22;27926;48.062;7.474;2023-07-31T07:22:25;21.70;99.90
42261;DHT22;27926;48.062;7.474;2023-07-31T07:24:50;21.70;99.90
42261;DHT22;27926;48.062;7.474;2023-07-31T07:27:15;21.70;99.90
42261;DHT22;27926;48.062;7.474;2023-07-31T07:29:39;21.60;99.90
42261;DHT22;27926;48.062;7.474;2023-07-31T07:32:04;21.30;99.90
42261;DHT22;27926;48.062;7.474;2023-07-31T07:34:29;21.00;99.90
42261;DHT22;27926;48.062;7.474;2023-07-31T07:36:54;20.80;99.90
42261;DHT22;27926;48.062;7.474;2023-07-31T07:39:19;20.60;99.90
42261;DHT22;27926;48.062;7.474;2023-07-31T07:41:44;20.60;99.90
42261;DHT22;27926;48.062;7.474;2023-07-31T07:44:09;20.70;99.90
42261;DHT22;27926;48.062;7.474;2023-07-31T07:46:40;20.90;99.90
42261;DHT22;27926;48.062;7.474;2023-07-31T07:49:04;20.90;99.90
42261;DHT22;27926;48.062;7.474;2023-07-31T07:51:29;21.00;99.90
42261;DHT22;27926;48.062;7.474;2023-07-31T07:53:55;21.00;99.90
42261;DHT22;27926;48.062;7.474;2023-07-31T07:56:20;20.90;99.90
42261;DHT22;27926;48.062;7.474;2023-07-31T07:58:47;21.10;99.90
42261;DHT22;27926;48.062;7.474;2023-07-31T08:01:12;21.50;99.90
42261;DHT22;27926;48.062;7.474;2023-07-31T08:03:38;22.00;99.90
42261;DHT22;27926;48.062;7.474;2023-07-31T08:06:03;22.70;99.90
42261;DHT22;27926;48.062;7.474;2023-07-31T08:08:30;23.00;99.90
42261;DHT22;27926;48.062;7.474;2023-07-31T08:10:55;23.30;99.90
42261;DHT22;27926;48.062;7.474;2023-07-31T08:13:19;23.40;99.90
42261;DHT22;27926;48.062;7.474;2023-07-31T08:15:44;23.20;99.90
42261;DHT22;27926;48.062;7.474;2023-07-31T08:18:09;23.00;99.90
42261;DHT22;27926;48.062;7.474;2023-07-31T08:20:34;23.00;99.90
42261;DHT22;27926;48.062;7.474;2023-07-31T08:22:59;23.40;99.90
42261;DHT22;27926;48.062;7.474;2023-07-31T08:25:23;23.30;99.90
42261;DHT22;27926;48.062;7.474;2023-07-31T08:27:48;23.00;99.90
42261;DHT22;27926;48.062;7.474;2023-07-31T08:30:12;22.80;99.90
42261;DHT22;27926;48.062;7.474;2023-07-31T08:32:37;22.70;99.90
42261;DHT22;27926;48.062;7.474;2023-07-31T08:35:02;22.40;99.90
42261;DHT22;27926;48.062;7.474;2023-07-31T08:37:26;22.20;99.90
42261;DHT22;27926;48.062;7.474;2023-07-31T08:39:51;22.10;99.90
42261;DHT22;27926;48.062;7.474;2023-07-31T08:42:16;22.00;99.90
42261;DHT22;27926;48.062;7.474;2023-07-31T08:44:41;22.00;99.90
42261;DHT22;27926;48.062;7.474;2023-07-31T08:47:06;22.00;99.90
42261;DHT22;27926;48.062;7.474;2023-07-31T08:49:32;22.10;99.90
42261;DHT22;27926;48.062;7.474;2023-07-31T08:51:56;22.20;99.90
42261;DHT22;27926;48.062;7.474;2023-07-31T08:54:22;22.40;99.90
42261;DHT22;27926;48.062;7.474;2023-07-31T08:56:47;22.60;99.90
42261;DHT22;27926;48.062;7.474;2023-07-31T08:59:14;22.90;99.90
42261;DHT22;27926;48.062;7.474;2023-07-31T09:01:43;23.20;99.60
42261;DHT22;27926;48.062;7.474;2023-07-31T09:04:09;23.40;99.80
42261;DHT22;27926;48.062;7.474;2023-07-31T09:06:33;23.40;99.20
42261;DHT22;27926;48.062;7.474;2023-07-31T09:08:58;23.40;99.10
42261;DHT22;27926;48.062;7.474;2023-07-31T09:11:24;23.50;99.80
42261;DHT22;27926;48.062;7.474;2023-07-31T09:13:53;23.80;99.20
42261;DHT22;27926;48.062;7.474;2023-07-31T09:16:27;23.90;99.00
42261;DHT22;27926;48.062;7.474;2023-07-31T09:18:54;23.70;98.40
42261;DHT22;27926;48.062;7.474;2023-07-31T09:21:23;23.40;98.80
42261;DHT22;27926;48.062;7.474;2023-07-31T09:23:47;22.90;98.90
42261;DHT22;27926;48.062;7.474;2023-07-31T09:26:32;22.80;99.60
42261;DHT22;27926;48.062;7.474;2023-07-31T09:28:57;23.10;99.80
42261;DHT22;27926;48.062;7.474;2023-07-31T09:31:39;23.00;98.80
42261;DHT22;27926;48.062;7.474;2023-07-31T09:34:04;23.10;99.30
42261;DHT22;27926;48.062;7.474;2023-07-31T09:36:29;23.30;98.50
42261;DHT22;27926;48.062;7.474;2023-07-31T09:38:55;23.50;99.30
42261;DHT22;27926;48.062;7.474;2023-07-31T09:41:20;23.70;98.50
42261;DHT22;27926;48.062;7.474;2023-07-31T09:43:53;23.90;98.50
42261;DHT22;27926;48.062;7.474;2023-07-31T09:46:20;24.10;97.40
42261;DHT22;27926;48.062;7.474;2023-07-31T09:48:45;24.20;97.10
42261;DHT22;27926;48.062;7.474;2023-07-31T09:51:09;24.50;97.50
42261;DHT22;27926;48.062;7.474;2023-07-31T09:53:34;24.50;96.70
42261;DHT22;27926;48.062;7.474;2023-07-31T09:55:59;24.40;97.70
42261;DHT22;27926;48.062;7.474;2023-07-31T09:58:26;24.30;96.60
42261;DHT22;27926;48.062;7.474;2023-07-31T10:00:53;24.20;97.30
42261;DHT22;27926;48.062;7.474;2023-07-31T10:03:17;24.40;97.10
42261;DHT22;27926;48.062;7.474;2023-07-31T10:05:45;24.70;97.30
42261;DHT22;27926;48.062;7.474;2023-07-31T10:08:15;24.70;97.60
42261;DHT22;27926;48.062;7.474;2023-07-31T10:10:44;24.90;97.00
42261;DHT22;27926;48.062;7.474;2023-07-31T10:13:10;25.00;96.80
42261;DHT22;27926;48.062;7.474;2023-07-31T10:15:36;25.10;95.90
42261;DHT22;27926;48.062;7.474;2023-07-31T10:18:02;25.40;96.00
42261;DHT22;27926;48.062;7.474;2023-07-31T10:20:28;25.80;96.20
42261;DHT22;27926;48.062;7.474;2023-07-31T10:22:54;26.10;96.20
42261;DHT22;27926;48.062;7.474;2023-07-31T10:25:19;26.30;95.50
42261;DHT22;27926;48.062;7.474;2023-07-31T10:27:45;26.10;94.90
42261;DHT22;27926;48.062;7.474;2023-07-31T10:30:14;26.10;95.30
42261;DHT22;27926;48.062;7.474;2023-07-31T10:32:41;25.90;95.00
42261;DHT22;27926;48.062;7.474;2023-07-31T10:35:07;25.80;95.70
42261;DHT22;27926;48.062;7.474;2023-07-31T10:37:40;26.00;95.70
42261;DHT22;27926;48.062;7.474;2023-07-31T10:40:07;25.80;94.90
42261;DHT22;27926;48.062;7.474;2023-07-31T10:42:48;25.40;95.50
42261;DHT22;27926;48.062;7.474;2023-07-31T10:45:17;25.00;95.70
42261;DHT22;27926;48.062;7.474;2023-07-31T10:47:47;24.70;96.50
42261;DHT22;27926;48.062;7.474;2023-07-31T10:52:48;24.40;96.40
42261;DHT22;27926;48.062;7.474;2023-07-31T10:55:24;24.30;96.30
42261;DHT22;27926;48.062;7.474;2023-07-31T10:57:49;24.10;96.80
42261;DHT22;27926;48.062;7.474;2023-07-31T11:00:28;24.00;97.40
42261;DHT22;27926;48.062;7.474;2023-07-31T11:03:03;23.90;97.10
42261;DHT22;27926;48.062;7.474;2023-07-31T11:05:51;23.90;97.90
42261;DHT22;27926;48.062;7.474;2023-07-31T11:10:48;24.30;97.20
42261;DHT22;27926;48.062;7.474;2023-07-31T11:13:14;24.30;97.10
42261;DHT22;27926;48.062;7.474;2023-07-31T11:15:38;24.20;97.10
42261;DHT22;27926;48.062;7.474;2023-07-31T11:18:03;24.10;97.20
42261;DHT22;27926;48.062;7.474;2023-07-31T11:20:30;24.00;97.00
42261;DHT22;27926;48.062;7.474;2023-07-31T11:22:57;24.00;97.10
42261;DHT22;27926;48.062;7.474;2023-07-31T11:25:22;24.00;97.50
42261;DHT22;27926;48.062;7.474;2023-07-31T11:27:46;24.10;97.90
42261;DHT22;27926;48.062;7.474;2023-07-31T11:30:11;24.10;97.50
42261;DHT22;27926;48.062;7.474;2023-07-31T11:32:37;24.20;97.80
42261;DHT22;27926;48.062;7.474;2023-07-31T11:35:01;24.30;97.90
42261;DHT22;27926;48.062;7.474;2023-07-31T11:37:42;24.90;98.00
42261;DHT22;27926;48.062;7.474;2023-07-31T11:40:08;25.30;97.60
42261;DHT22;27926;48.062;7.474;2023-07-31T11:42:34;25.80;97.10
42261;DHT22;27926;48.062;7.474;2023-07-31T11:45:05;26.00;95.50
42261;DHT22;27926;48.062;7.474;2023-07-31T11:47:31;26.10;95.30
42261;DHT22;27926;48.062;7.474;2023-07-31T11:49:58;26.20;95.60
42261;DHT22;27926;48.062;7.474;2023-07-31T11:52:23;26.40;95.40
42261;DHT22;27926;48.062;7.474;2023-07-31T11:54:48;26.50;94.60
42261;DHT22;27926;48.062;7.474;2023-07-31T11:57:13;26.50;94.40
42261;DHT22;27926;48.062;7.474;2023-07-31T11:59:39;26.50;94.50
42261;DHT22;27926;48.062;7.474;2023-07-31T12:02:03;26.50;94.70
42261;DHT22;27926;48.062;7.474;2023-07-31T12:04:28;26.40;94.40
42261;DHT22;27926;48.062;7.474;2023-07-31T12:06:54;26.10;94.30
42261;DHT22;27926;48.062;7.474;2023-07-31T12:09:18;25.90;94.80
42261;DHT22;27926;48.062;7.474;2023-07-31T12:11:44;25.80;94.90
42261;DHT22;27926;48.062;7.474;2023-07-31T12:14:20;25.70;95.60
42261;DHT22;27926;48.062;7.474;2023-07-31T12:16:45;25.70;95.10
42261;DHT22;27926;48.062;7.474;2023-07-31T12:19:10;25.70;95.60
42261;DHT22;27926;48.062;7.474;2023-07-31T12:21:34;26.10;95.60
42261;DHT22;27926;48.062;7.474;2023-07-31T12:23:59;26.50;94.90
42261;DHT22;27926;48.062;7.474;2023-07-31T12:26:34;26.80;94.60
42261;DHT22;27926;48.062;7.474;2023-07-31T12:28:58;27.20;93.70
42261;DHT22;27926;48.062;7.474;2023-07-31T12:31:23;27.30;93.70
42261;DHT22;27926;48.062;7.474;2023-07-31T12:33:51;27.40;93.50
42261;DHT22;27926;48.062;7.474;2023-07-31T12:36:18;27.40;93.60
42261;DHT22;27926;48.062;7.474;2023-07-31T12:38:43;27.10;93.70
42261;DHT22;27926;48.062;7.474;2023-07-31T12:41:08;26.80;93.40
42261;DHT22;27926;48.062;7.474;2023-07-31T12:43:34;26.50;94.10
42261;DHT22;27926;48.062;7.474;2023-07-31T12:45:58;26.40;94.40
42261;DHT22;27926;48.062;7.474;2023-07-31T12:48:23;26.30;94.60
42261;DHT22;27926;48.062;7.474;2023-07-31T12:50:48;26.40;94.10
42261;DHT22;27926;48.062;7.474;2023-07-31T12:53:12;26.50;94.50
42261;DHT22;27926;48.062;7.474;2023-07-31T12:55:37;26.40;94.20
42261;DHT22;27926;48.062;7.474;2023-07-31T12:58:02;26.30;94.70
42261;DHT22;27926;48.062;7.474;2023-07-31T13:00:26;26.40;94.70
42261;DHT22;27926;48.062;7.474;2023-07-31T13:02:51;26.50;94.70
42261;DHT22;27926;48.062;7.474;2023-07-31T13:05:16;26.60;94.20
42261;DHT22;27926;48.062;7.474;2023-07-31T13:07:41;26.60;94.10
42261;DHT22;27926;48.062;7.474;2023-07-31T13:10:06;26.60;93.90
42261;DHT22;27926;48.062;7.474;2023-07-31T13:12:31;26.50;94.30
42261;DHT22;27926;48.062;7.474;2023-07-31T13:14:56;26.60;94.30
42261;DHT22;27926;48.062;7.474;2023-07-31T13:17:20;26.60;94.50
42261;DHT22;27926;48.062;7.474;2023-07-31T13:19:45;26.90;95.00
42261;DHT22;27926;48.062;7.474;2023-07-31T13:22:10;27.00;93.70
42261;DHT22;27926;48.062;7.474;2023-07-31T13:24:35;26.90;94.00
42261;DHT22;27926;48.062;7.474;2023-07-31T13:26:59;26.80;94.10
42261;DHT22;27926;48.062;7.474;2023-07-31T13:29:24;26.80;94.00
42261;DHT22;27926;48.062;7.474;2023-07-31T13:31:53;26.80;94.20
42261;DHT22;27926;48.062;7.474;2023-07-31T13:34:17;26.90;94.80
42261;DHT22;27926;48.062;7.474;2023-07-31T13:36:42;27.10;94.20
42261;DHT22;27926;48.062;7.474;2023-07-31T13:39:07;27.20;93.50
42261;DHT22;27926;48.062;7.474;2023-07-31T13:41:31;27.40;93.50
42261;DHT22;27926;48.062;7.474;2023-07-31T13:43:56;27.40;93.10
42261;DHT22;27926;48.062;7.474;2023-07-31T13:46:20;27.30;93.10
42261;DHT22;27926;48.062;7.474;2023-07-31T13:48:45;27.40;93.90
42261;DHT22;27926;48.062;7.474;2023-07-31T13:51:09;27.70;93.40
42261;DHT22;27926;48.062;7.474;2023-07-31T13:53:34;27.90;93.30
42261;DHT22;27926;48.062;7.474;2023-07-31T13:55:59;27.80;92.60
42261;DHT22;27926;48.062;7.474;2023-07-31T13:58:23;27.70;93.10
42261;DHT22;27926;48.062;7.474;2023-07-31T14:00:48;27.70;93.50
42261;DHT22;27926;48.062;7.474;2023-07-31T14:03:12;27.70;92.90
42261;DHT22;27926;48.062;7.474;2023-07-31T14:05:37;27.70;93.40
42261;DHT22;27926;48.062;7.474;2023-07-31T14:08:02;27.50;93.20
42261;DHT22;27926;48.062;7.474;2023-07-31T14:10:27;27.40;93.10
42261;DHT22;27926;48.062;7.474;2023-07-31T14:12:51;27.20;93.50
42261;DHT22;27926;48.062;7.474;2023-07-31T14:15:16;27.10;93.40
42261;DHT22;27926;48.062;7.474;2023-07-31T14:17:40;27.00;93.70
42261;DHT22;27926;48.062;7.474;2023-07-31T14:20:05;27.10;93.70
42261;DHT22;27926;48.062;7.474;2023-07-31T14:22:30;27.40;93.80
42261;DHT22;27926;48.062;7.474;2023-07-31T14:24:57;27.60;93.40
42261;DHT22;27926;48.062;7.474;2023-07-31T14:27:22;27.70;93.20
42261;DHT22;27926;48.062;7.474;2023-07-31T14:29:46;27.80;93.10
42261;DHT22;27926;48.062;7.474;2023-07-31T14:32:11;27.70;93.30
42261;DHT22;27926;48.062;7.474;2023-07-31T14:34:35;27.60;93.00
42261;DHT22;27926;48.062;7.474;2023-07-31T14:37:00;27.50;93.10
42261;DHT22;27926;48.062;7.474;2023-07-31T14:39:25;27.40;93.50
42261;DHT22;27926;48.062;7.474;2023-07-31T14:41:49;27.40;93.50
42261;DHT22;27926;48.062;7.474;2023-07-31T14:44:14;27.40;93.80
42261;DHT22;27926;48.062;7.474;2023-07-31T14:46:40;27.60;93.30
42261;DHT22;27926;48.062;7.474;2023-07-31T14:49:05;27.50;93.10
42261;DHT22;27926;48.062;7.474;2023-07-31T14:51:29;27.50;93.20
42261;DHT22;27926;48.062;7.474;2023-07-31T14:53:54;27.60;92.90
42261;DHT22;27926;48.062;7.474;2023-07-31T14:56:18;27.80;93.10
42261;DHT22;27926;48.062;7.474;2023-07-31T14:58:43;27.60;92.80
42261;DHT22;27926;48.062;7.474;2023-07-31T15:01:08;27.50;92.50
42261;DHT22;27926;48.062;7.474;2023-07-31T15:03:32;27.30;93.40
42261;DHT22;27926;48.062;7.474;2023-07-31T15:05:57;27.10;92.80
42261;DHT22;27926;48.062;7.474;2023-07-31T15:08:21;27.10;93.00
42261;DHT22;27926;48.062;7.474;2023-07-31T15:10:46;27.00;93.00
42261;DHT22;27926;48.062;7.474;2023-07-31T15:13:11;26.80;93.70
42261;DHT22;27926;48.062;7.474;2023-07-31T15:15:35;26.70;93.80
42261;DHT22;27926;48.062;7.474;2023-07-31T15:18:00;26.70;93.50
42261;DHT22;27926;48.062;7.474;2023-07-31T15:20:25;26.50;93.30
42261;DHT22;27926;48.062;7.474;2023-07-31T15:22:49;26.40;93.50
42261;DHT22;27926;48.062;7.474;2023-07-31T15:25:14;26.30;93.80
42261;DHT22;27926;48.062;7.474;2023-07-31T15:27:39;26.20;93.80
42261;DHT22;27926;48.062;7.474;2023-07-31T15:30:04;26.10;94.50
42261;DHT22;27926;48.062;7.474;2023-07-31T15:32:29;26.10;94.10
42261;DHT22;27926;48.062;7.474;2023-07-31T15:34:54;26.00;94.20
42261;DHT22;27926;48.062;7.474;2023-07-31T15:37:19;25.90;94.40
42261;DHT22;27926;48.062;7.474;2023-07-31T15:39:43;25.70;94.30
42261;DHT22;27926;48.062;7.474;2023-07-31T15:42:08;25.60;94.40
42261;DHT22;27926;48.062;7.474;2023-07-31T15:44:33;25.50;94.70
42261;DHT22;27926;48.062;7.474;2023-07-31T15:46:58;25.30;94.90
42261;DHT22;27926;48.062;7.474;2023-07-31T15:49:22;25.30;95.50
42261;DHT22;27926;48.062;7.474;2023-07-31T15:51:47;25.40;95.70
42261;DHT22;27926;48.062;7.474;2023-07-31T15:54:11;25.40;95.70
42261;DHT22;27926;48.062;7.474;2023-07-31T15:56:37;25.30;96.20
42261;DHT22;27926;48.062;7.474;2023-07-31T15:59:01;25.30;96.20
42261;DHT22;27926;48.062;7.474;2023-07-31T16:01:27;25.20;96.30
42261;DHT22;27926;48.062;7.474;2023-07-31T16:03:52;25.20;96.60
42261;DHT22;27926;48.062;7.474;2023-07-31T16:06:17;25.10;96.40
42261;DHT22;27926;48.062;7.474;2023-07-31T16:08:41;25.10;96.40
42261;DHT22;27926;48.062;7.474;2023-07-31T16:11:06;25.20;97.00
42261;DHT22;27926;48.062;7.474;2023-07-31T16:13:31;25.20;96.40
42261;DHT22;27926;48.062;7.474;2023-07-31T16:15:56;25.10;96.30
42261;DHT22;27926;48.062;7.474;2023-07-31T16:18:20;25.10;96.60
42261;DHT22;27926;48.062;7.474;2023-07-31T16:20:45;25.10;96.60
42261;DHT22;27926;48.062;7.474;2023-07-31T16:23:09;25.00;97.00
42261;DHT22;27926;48.062;7.474;2023-07-31T16:25:35;24.80;97.00
42261;DHT22;27926;48.062;7.474;2023-07-31T16:27:59;24.80;97.30
42261;DHT22;27926;48.062;7.474;2023-07-31T16:30:24;24.80;97.40
42261;DHT22;27926;48.062;7.474;2023-07-31T16:32:49;24.80;97.30
42261;DHT22;27926;48.062;7.474;2023-07-31T16:35:14;24.70;97.60
42261;DHT22;27926;48.062;7.474;2023-07-31T16:37:38;24.70;97.80
42261;DHT22;27926;48.062;7.474;2023-07-31T16:40:04;24.70;97.90
42261;DHT22;27926;48.062;7.474;2023-07-31T16:42:29;24.60;97.90
42261;DHT22;27926;48.062;7.474;2023-07-31T16:44:53;24.70;98.10
42261;DHT22;27926;48.062;7.474;2023-07-31T16:47:18;24.60;98.10
42261;DHT22;27926;48.062;7.474;2023-07-31T16:49:43;24.60;98.30
42261;DHT22;27926;48.062;7.474;2023-07-31T16:52:10;24.50;98.40
42261;DHT22;27926;48.062;7.474;2023-07-31T16:54:36;24.50;98.60
42261;DHT22;27926;48.062;7.474;2023-07-31T16:57:00;24.50;98.60
42261;DHT22;27926;48.062;7.474;2023-07-31T16:59:25;24.50;98.50
42261;DHT22;27926;48.062;7.474;2023-07-31T17:01:50;24.50;98.40
42261;DHT22;27926;48.062;7.474;2023-07-31T17:04:15;24.50;98.50
42261;DHT22;27926;48.062;7.474;2023-07-31T17:06:40;24.50;98.70
42261;DHT22;27926;48.062;7.474;2023-07-31T17:09:05;24.50;98.60
42261;DHT22;27926;48.062;7.474;2023-07-31T17:11:31;24.50;98.40
42261;DHT22;27926;48.062;7.474;2023-07-31T17:13:55;24.50;98.50
42261;DHT22;27926;48.062;7.474;2023-07-31T17:16:20;24.50;98.20
42261;DHT22;27926;48.062;7.474;2023-07-31T17:18:46;24.40;98.30
42261;DHT22;27926;48.062;7.474;2023-07-31T17:21:10;24.30;98.50
42261;DHT22;27926;48.062;7.474;2023-07-31T17:23:36;24.10;98.30
42261;DHT22;27926;48.062;7.474;2023-07-31T17:26:01;24.00;98.50
42261;DHT22;27926;48.062;7.474;2023-07-31T17:28:25;23.90;98.70
42261;DHT22;27926;48.062;7.474;2023-07-31T17:30:50;23.80;98.70
42261;DHT22;27926;48.062;7.474;2023-07-31T17:33:15;23.70;98.80
42261;DHT22;27926;48.062;7.474;2023-07-31T17:35:39;23.70;99.00
42261;DHT22;27926;48.062;7.474;2023-07-31T17:38:04;23.70;99.20
42261;DHT22;27926;48.062;7.474;2023-07-31T17:40:29;23.70;98.90
42261;DHT22;27926;48.062;7.474;2023-07-31T17:42:53;23.80;98.90
42261;DHT22;27926;48.062;7.474;2023-07-31T17:45:18;23.80;99.00
42261;DHT22;27926;48.062;7.474;2023-07-31T17:47:43;23.70;99.10
42261;DHT22;27926;48.062;7.474;2023-07-31T17:50:08;23.70;99.20
42261;DHT22;27926;48.062;7.474;2023-07-31T17:52:33;23.70;99.20
42261;DHT22;27926;48.062;7.474;2023-07-31T17:54:58;23.60;99.50
42261;DHT22;27926;48.062;7.474;2023-07-31T17:57:23;23.60;99.50
42261;DHT22;27926;48.062;7.474;2023-07-31T17:59:48;23.50;99.60
42261;DHT22;27926;48.062;7.474;2023-07-31T18:02:12;23.40;99.50
42261;DHT22;27926;48.062;7.474;2023-07-31T18:04:37;23.30;99.70
42261;DHT22;27926;48.062;7.474;2023-07-31T18:07:01;23.20;99.80
42261;DHT22;27926;48.062;7.474;2023-07-31T18:09:26;23.10;99.90
42261;DHT22;27926;48.062;7.474;2023-07-31T18:11:51;23.10;99.90
42261;DHT22;27926;48.062;7.474;2023-07-31T18:14:15;23.00;99.90
42261;DHT22;27926;48.062;7.474;2023-07-31T18:16:40;22.90;99.90
42261;DHT22;27926;48.062;7.474;2023-07-31T18:19:04;22.90;99.90
42261;DHT22;27926;48.062;7.474;2023-07-31T18:21:29;22.80;99.90
42261;DHT22;27926;48.062;7.474;2023-07-31T18:23:56;22.80;99.90
42261;DHT22;27926;48.062;7.474;2023-07-31T18:26:21;22.70;99.90
42261;DHT22;27926;48.062;7.474;2023-07-31T18:28:45;22.70;99.90
42261;DHT22;27926;48.062;7.474;2023-07-31T18:31:13;22.50;99.90
42261;DHT22;27926;48.062;7.474;2023-07-31T18:33:40;23.30;99.90
42261;DHT22;27926;48.062;7.474;2023-07-31T18:36:04;22.10;99.90
42261;DHT22;27926;48.062;7.474;2023-07-31T18:38:29;22.00;99.90
42261;DHT22;27926;48.062;7.474;2023-07-31T18:40:56;21.90;99.90
42261;DHT22;27926;48.062;7.474;2023-07-31T18:43:20;21.80;99.90
42261;DHT22;27926;48.062;7.474;2023-07-31T18:45:45;21.70;99.90
42261;DHT22;27926;48.062;7.474;2023-07-31T18:48:10;21.70;99.90
42261;DHT22;27926;48.062;7.474;2023-07-31T18:50:40;21.60;99.90
42261;DHT22;27926;48.062;7.474;2023-07-31T18:53:06;21.60;99.90
42261;DHT22;27926;48.062;7.474;2023-07-31T18:55:30;21.60;99.90
42261;DHT22;27926;48.062;7.474;2023-07-31T18:57:55;21.60;99.90
42261;DHT22;27926;48.062;7.474;2023-07-31T19:00:20;21.50;99.90
42261;DHT22;27926;48.062;7.474;2023-07-31T19:02:44;21.50;99.90
42261;DHT22;27926;48.062;7.474;2023-07-31T19:05:09;21.50;99.90
42261;DHT22;27926;48.062;7.474;2023-07-31T19:07:34;21.50;99.90
42261;DHT22;27926;48.062;7.474;2023-07-31T19:09:58;21.40;99.90
42261;DHT22;27926;48.062;7.474;2023-07-31T19:12:24;21.40;99.90
42261;DHT22;27926;48.062;7.474;2023-07-31T19:14:48;21.30;99.90
42261;DHT22;27926;48.062;7.474;2023-07-31T19:17:13;21.30;99.90
42261;DHT22;27926;48.062;7.474;2023-07-31T19:19:37;21.20;99.90
42261;DHT22;27926;48.062;7.474;2023-07-31T19:22:02;21.10;99.90
42261;DHT22;27926;48.062;7.474;2023-07-31T19:24:27;21.00;99.90
42261;DHT22;27926;48.062;7.474;2023-07-31T19:26:52;21.00;99.90
42261;DHT22;27926;48.062;7.474;2023-07-31T19:29:17;20.90;99.90
42261;DHT22;27926;48.062;7.474;2023-07-31T19:31:41;20.80;99.90
42261;DHT22;27926;48.062;7.474;2023-07-31T19:34:09;20.70;99.90
42261;DHT22;27926;48.062;7.474;2023-07-31T19:36:34;20.60;99.90
42261;DHT22;27926;48.062;7.474;2023-07-31T19:38:58;20.50;99.90
42261;DHT22;27926;48.062;7.474;2023-07-31T19:41:23;20.50;99.90
42261;DHT22;27926;48.062;7.474;2023-07-31T19:43:48;20.40;99.90
42261;DHT22;27926;48.062;7.474;2023-07-31T19:46:12;20.40;99.90
42261;DHT22;27926;48.062;7.474;2023-07-31T19:48:37;20.30;99.90
42261;DHT22;27926;48.062;7.474;2023-07-31T19:51:02;20.30;99.90
42261;DHT22;27926;48.062;7.474;2023-07-31T19:53:26;20.30;99.90
42261;DHT22;27926;48.062;7.474;2023-07-31T19:55:51;20.20;99.90
42261;DHT22;27926;48.062;7.474;2023-07-31T19:58:16;20.20;99.90
42261;DHT22;27926;48.062;7.474;2023-07-31T20:00:40;20.20;99.90
42261;DHT22;27926;48.062;7.474;2023-07-31T20:03:05;20.20;99.90
42261;DHT22;27926;48.062;7.474;2023-07-31T20:05:30;20.20;99.90
42261;DHT22;27926;48.062;7.474;2023-07-31T20:07:54;20.10;99.90
42261;DHT22;27926;48.062;7.474;2023-07-31T20:10:19;20.10;99.90
42261;DHT22;27926;48.062;7.474;2023-07-31T20:12:43;20.10;99.90
42261;DHT22;27926;48.062;7.474;2023-07-31T20:15:21;20.10;99.90
42261;DHT22;27926;48.062;7.474;2023-07-31T20:17:47;20.10;99.90
42261;DHT22;27926;48.062;7.474;2023-07-31T20:20:12;20.10;99.90
42261;DHT22;27926;48.062;7.474;2023-07-31T20:22:36;20.10;99.90
42261;DHT22;27926;48.062;7.474;2023-07-31T20:25:01;20.10;99.90
42261;DHT22;27926;48.062;7.474;2023-07-31T20:27:25;20.10;99.90
42261;DHT22;27926;48.062;7.474;2023-07-31T20:29:50;20.10;99.90
42261;DHT22;27926;48.062;7.474;2023-07-31T20:32:15;20.10;99.90
42261;DHT22;27926;48.062;7.474;2023-07-31T20:34:39;20.10;99.90
42261;DHT22;27926;48.062;7.474;2023-07-31T20:37:04;20.10;99.90
42261;DHT22;27926;48.062;7.474;2023-07-31T20:39:29;20.20;99.90
42261;DHT22;27926;48.062;7.474;2023-07-31T20:41:53;20.20;99.90
42261;DHT22;27926;48.062;7.474;2023-07-31T20:44:19;20.20;99.90
42261;DHT22;27926;48.062;7.474;2023-07-31T20:46:44;20.30;99.90
42261;DHT22;27926;48.062;7.474;2023-07-31T20:49:08;20.30;99.90
42261;DHT22;27926;48.062;7.474;2023-07-31T20:51:33;20.30;99.90
42261;DHT22;27926;48.062;7.474;2023-07-31T20:53:59;20.30;99.90
42261;DHT22;27926;48.062;7.474;2023-07-31T20:56:24;20.30;99.90
42261;DHT22;27926;48.062;7.474;2023-07-31T20:58:49;20.40;99.90
42261;DHT22;27926;48.062;7.474;2023-07-31T21:01:13;20.40;99.90
42261;DHT22;27926;48.062;7.474;2023-07-31T21:03:38;20.40;99.90
42261;DHT22;27926;48.062;7.474;2023-07-31T21:06:02;20.40;99.90
42261;DHT22;27926;48.062;7.474;2023-07-31T21:08:27;20.40;99.90
42261;DHT22;27926;48.062;7.474;2023-07-31T21:10:52;20.40;99.90
42261;DHT22;27926;48.062;7.474;2023-07-31T21:13:17;20.40;99.90
42261;DHT22;27926;48.062;7.474;2023-07-31T21:15:42;20.30;99.90
42261;DHT22;27926;48.062;7.474;2023-07-31T21:18:08;20.10;99.90
42261;DHT22;27926;48.062;7.474;2023-07-31T21:20:33;20.00;99.90
42261;DHT22;27926;48.062;7.474;2023-07-31T21:22:57;20.00;99.90
42261;DHT22;27926;48.062;7.474;2023-07-31T21:25:23;19.80;99.90
42261;DHT22;27926;48.062;7.474;2023-07-31T21:27:48;19.80;99.90
42261;DHT22;27926;48.062;7.474;2023-07-31T21:30:12;19.70;99.90
42261;DHT22;27926;48.062;7.474;2023-07-31T21:32:37;19.70;99.90
42261;DHT22;27926;48.062;7.474;2023-07-31T21:35:02;19.60;99.90
42261;DHT22;27926;48.062;7.474;2023-07-31T21:37:27;19.60;99.90
42261;DHT22;27926;48.062;7.474;2023-07-31T21:39:51;19.60;99.90
42261;DHT22;27926;48.062;7.474;2023-07-31T21:42:16;19.50;99.90
42261;DHT22;27926;48.062;7.474;2023-07-31T21:44:42;19.50;99.90
42261;DHT22;27926;48.062;7.474;2023-07-31T21:47:06;19.50;99.90
42261;DHT22;27926;48.062;7.474;2023-07-31T21:49:31;19.50;99.90
42261;DHT22;27926;48.062;7.474;2023-07-31T21:51:55;19.60;99.90
42261;DHT22;27926;48.062;7.474;2023-07-31T21:54:20;19.60;99.90